createdAt,value
2019-05-22T00:02:19.195Z,11.61
2019-05-22T00:04:59.133Z,11.58
2019-05-22T00:07:29.481Z,11.58
2019-05-22T00:09:58.806Z,11.58
2019-05-22T00:12:28.875Z,11.60
2019-05-22T00:14:58.873Z,11.63
2019-05-22T00:17:32.216Z,11.61
2019-05-22T00:20:03.744Z,11.60
2019-05-22T00:22:36.152Z,11.61
2019-05-22T00:25:08.360Z,11.61
2019-05-22T00:27:37.888Z,11.62
2019-05-22T00:30:09.943Z,11.59
2019-05-22T00:32:39.502Z,11.64
2019-05-22T00:35:09.991Z,11.65
2019-05-22T00:37:40.277Z,11.63
2019-05-22T00:40:12.181Z,11.63
2019-05-22T00:42:45.296Z,11.63
2019-05-22T00:45:15.380Z,11.64
2019-05-22T00:47:44.994Z,11.65
2019-05-22T00:50:20.936Z,11.68
2019-05-22T00:53:03.270Z,11.65
2019-05-22T00:55:48.460Z,11.63
2019-05-22T00:58:22.725Z,11.56
2019-05-22T01:00:54.653Z,11.59
2019-05-22T01:03:25.537Z,11.55
2019-05-22T01:05:55.866Z,11.51
2019-05-22T01:08:28.357Z,11.50
2019-05-22T01:10:58.723Z,11.48
2019-05-22T01:13:35.396Z,11.46
2019-05-22T01:16:05.381Z,11.40
2019-05-22T01:18:36.210Z,11.41
2019-05-22T01:21:07.666Z,11.40
2019-05-22T01:23:38.952Z,11.40
2019-05-22T01:26:13.591Z,11.37
2019-05-22T01:28:43.683Z,11.38
2019-05-22T01:31:33.002Z,11.36
2019-05-22T01:34:08.132Z,11.33
2019-05-22T01:36:44.500Z,11.33
2019-05-22T01:39:43.672Z,11.32
2019-05-22T01:42:15.551Z,11.30
2019-05-22T01:44:59.809Z,11.24
2019-05-22T01:47:32.410Z,11.23
2019-05-22T01:50:03.273Z,11.20
2019-05-22T01:52:32.984Z,11.19
2019-05-22T01:55:02.663Z,11.21
2019-05-22T01:57:32.745Z,11.14
2019-05-22T02:00:03.715Z,11.13
2019-05-22T02:02:33.373Z,11.12
2019-05-22T02:05:04.874Z,11.14
2019-05-22T02:07:34.303Z,11.11
2019-05-22T02:10:05.449Z,11.06
2019-05-22T02:12:52.644Z,11.05
2019-05-22T02:15:22.021Z,11.00
2019-05-22T02:17:52.659Z,11.03
2019-05-22T02:20:24.333Z,10.98
2019-05-22T02:22:55.214Z,10.97
2019-05-22T02:25:25.397Z,10.97
2019-05-22T02:27:56.994Z,10.96
2019-05-22T02:30:26.773Z,11.02
2019-05-22T02:32:57.402Z,11.02
2019-05-22T02:35:26.765Z,11.02
2019-05-22T02:37:58.024Z,10.93
2019-05-22T02:40:32.578Z,10.93
2019-05-22T02:43:02.263Z,10.92
2019-05-22T02:45:31.603Z,10.91
2019-05-22T02:48:03.619Z,10.87
2019-05-22T02:50:34.694Z,10.83
2019-05-22T02:53:07.553Z,10.81
2019-05-22T02:55:37.593Z,10.83
2019-05-22T02:58:07.730Z,10.76
2019-05-22T03:00:58.411Z,10.75
2019-05-22T03:03:28.984Z,10.70
2019-05-22T03:06:13.642Z,10.69
2019-05-22T03:09:15.858Z,10.70
2019-05-22T03:11:51.332Z,10.67
2019-05-22T03:14:35.065Z,10.60
2019-05-22T03:17:09.703Z,10.64
2019-05-22T03:19:42.809Z,10.64
2019-05-22T03:22:29.012Z,10.62
2019-05-22T03:25:02.112Z,10.57
2019-05-22T03:27:44.136Z,10.57
2019-05-22T03:30:30.775Z,10.49
2019-05-22T03:33:06.214Z,10.54
2019-05-22T03:36:01.440Z,10.48
2019-05-22T03:38:42.095Z,10.44
2019-05-22T03:41:13.660Z,10.45
2019-05-22T03:43:46.292Z,10.46
2019-05-22T03:46:31.716Z,10.43
2019-05-22T03:49:02.957Z,10.36
2019-05-22T03:51:33.201Z,10.35
2019-05-22T03:54:03.617Z,10.33
2019-05-22T03:56:36.415Z,10.35
2019-05-22T03:59:05.878Z,10.33
2019-05-22T04:05:03.204Z,10.36
2019-05-22T04:07:38.819Z,10.35
2019-05-22T04:10:14.676Z,10.36
2019-05-22T04:12:44.373Z,10.28
2019-05-22T04:15:14.222Z,10.25
2019-05-22T04:17:44.211Z,10.29
2019-05-22T04:20:19.910Z,10.29
2019-05-22T04:22:56.059Z,10.30
2019-05-22T04:25:26.823Z,10.27
2019-05-22T04:27:58.876Z,10.29
2019-05-22T04:30:30.767Z,10.32
2019-05-22T04:33:02.563Z,10.25
2019-05-22T04:35:33.294Z,10.30
2019-05-22T04:38:03.885Z,10.33
2019-05-22T04:40:59.783Z,10.33
2019-05-22T04:43:32.940Z,10.38
2019-05-22T04:46:03.638Z,10.40
2019-05-22T04:48:36.478Z,10.41
2019-05-22T04:51:31.833Z,10.42
2019-05-22T04:54:04.457Z,10.51
2019-05-22T04:56:37.061Z,10.45
2019-05-22T04:59:06.600Z,10.45
2019-05-22T05:01:36.504Z,10.44
2019-05-22T05:04:06.797Z,10.50
2019-05-22T05:06:37.716Z,10.51
2019-05-22T05:09:13.267Z,10.55
2019-05-22T05:11:43.833Z,10.58
2019-05-22T05:14:13.919Z,10.62
2019-05-22T05:16:43.614Z,10.62
2019-05-22T05:19:13.036Z,10.69
2019-05-22T05:21:42.731Z,10.63
2019-05-22T05:24:14.402Z,10.59
2019-05-22T05:26:44.634Z,10.65
2019-05-22T05:29:27.721Z,10.56
2019-05-22T05:32:01.762Z,10.63
2019-05-22T05:35:00.148Z,10.66
2019-05-22T05:37:29.767Z,10.72
2019-05-22T05:40:39.955Z,10.69
2019-05-22T05:43:11.558Z,10.71
2019-05-22T05:45:42.883Z,10.66
2019-05-22T05:48:27.238Z,10.76
2019-05-22T05:56:22.183Z,10.92
2019-05-22T05:58:51.632Z,10.87
2019-05-22T06:01:35.334Z,10.83
2019-05-22T06:04:05.201Z,10.87
2019-05-22T06:07:14.447Z,10.89
2019-05-22T06:09:44.853Z,10.97
2019-05-22T06:12:14.430Z,11.09
2019-05-22T06:14:44.203Z,11.03
2019-05-22T06:17:51.789Z,11.08
2019-05-22T06:20:22.996Z,11.09
2019-05-22T06:23:46.305Z,11.04
2019-05-22T06:26:59.107Z,11.10
2019-05-22T06:29:34.576Z,11.09
2019-05-22T06:32:55.414Z,11.14
2019-05-22T06:35:26.846Z,11.03
2019-05-22T06:38:28.669Z,11.15
2019-05-22T06:40:57.942Z,11.14
2019-05-22T06:44:21.792Z,11.11
2019-05-22T06:46:52.286Z,11.11
2019-05-22T06:49:38.755Z,11.06
2019-05-22T06:52:08.782Z,10.91
2019-05-22T06:54:38.934Z,10.94
2019-05-22T06:57:27.116Z,11.07
2019-05-22T07:00:13.465Z,11.04
2019-05-22T07:02:34.806Z,11.03
2019-05-22T07:05:05.817Z,11.06
2019-05-22T07:07:35.053Z,10.97
2019-05-22T07:10:05.520Z,10.96
2019-05-22T07:12:35.877Z,10.94
2019-05-22T07:15:53.858Z,10.96
2019-05-22T07:22:04.655Z,11.14
2019-05-22T07:24:41.151Z,11.27
2019-05-22T07:27:24.994Z,11.32
2019-05-22T07:29:54.806Z,11.34
2019-05-22T07:32:24.890Z,11.37
2019-05-22T07:34:54.304Z,11.40
2019-05-22T07:37:41.958Z,11.50
2019-05-22T07:40:12.133Z,11.57
2019-05-22T07:42:41.678Z,11.73
2019-05-22T07:45:12.173Z,11.81
2019-05-22T07:47:42.555Z,11.99
2019-05-22T07:50:13.308Z,12.08
2019-05-22T07:52:43.041Z,12.26
2019-05-22T07:55:13.139Z,12.41
2019-05-22T07:57:44.125Z,12.37
2019-05-22T08:00:14.048Z,12.52
2019-05-22T08:02:46.511Z,12.34
2019-05-22T08:05:17.572Z,12.64
2019-05-22T08:07:47.233Z,12.63
2019-05-22T08:10:18.067Z,12.69
2019-05-22T08:12:49.063Z,12.97
2019-05-22T08:15:20.109Z,13.06
2019-05-22T08:17:49.576Z,13.13
2019-05-22T08:20:19.217Z,12.98
2019-05-22T08:22:51.421Z,12.83
2019-05-22T08:28:30.062Z,12.63
2019-05-22T08:31:00.801Z,12.94
2019-05-22T08:33:30.722Z,12.94
2019-05-22T08:36:00.785Z,12.87
2019-05-22T08:38:32.723Z,12.85
2019-05-22T08:41:04.039Z,12.96
2019-05-22T08:43:55.912Z,13.09
2019-05-22T08:46:07.034Z,12.95
2019-05-22T08:48:38.961Z,13.13
2019-05-22T08:51:09.625Z,13.08
2019-05-22T08:53:47.519Z,12.99
2019-05-22T08:56:11.158Z,13.15
2019-05-22T08:58:42.302Z,12.98
2019-05-22T09:01:13.125Z,13.16
2019-05-22T09:03:42.630Z,13.04
2019-05-22T09:06:12.274Z,13.22
2019-05-22T09:08:41.822Z,13.40
2019-05-22T09:11:12.040Z,13.44
2019-05-22T09:13:41.745Z,13.48
2019-05-22T09:16:12.192Z,13.65
2019-05-22T09:18:41.598Z,13.55
2019-05-22T09:21:12.038Z,13.59
2019-05-22T09:23:42.100Z,13.72
2019-05-22T09:26:11.631Z,14.15
2019-05-22T09:28:41.047Z,14.32
2019-05-22T09:31:10.362Z,14.83
2019-05-22T09:33:39.737Z,14.23
2019-05-22T09:36:09.601Z,14.49
2019-05-22T09:38:39.218Z,15.13
2019-05-22T09:41:08.782Z,14.93
2019-05-22T09:43:39.131Z,14.56
2019-05-22T09:46:09.314Z,14.05
2019-05-22T09:48:39.448Z,14.36
2019-05-22T09:51:08.988Z,14.68
2019-05-22T09:53:39.633Z,14.87
2019-05-22T09:56:09.445Z,15.25
2019-05-22T09:58:38.774Z,14.89
2019-05-22T10:01:11.851Z,14.56
2019-05-22T10:03:40.525Z,14.25
2019-05-22T10:06:10.612Z,14.06
2019-05-22T10:08:41.096Z,14.08
2019-05-22T10:11:10.641Z,14.32
2019-05-22T10:13:40.007Z,14.89
2019-05-22T10:16:09.645Z,15.23
2019-05-22T10:18:38.939Z,15.41
2019-05-22T10:21:08.614Z,15.55
2019-05-22T10:23:38.220Z,15.10
2019-05-22T10:26:07.542Z,14.91
2019-05-22T10:28:37.103Z,14.72
2019-05-22T10:31:07.789Z,14.98
2019-05-22T10:33:39.206Z,15.13
2019-05-22T10:36:08.872Z,15.29
2019-05-22T10:38:38.163Z,15.32
2019-05-22T10:41:07.533Z,15.66
2019-05-22T10:43:37.313Z,15.57
2019-05-22T10:46:07.885Z,15.58
2019-05-22T10:48:40.143Z,15.75
2019-05-22T10:51:09.171Z,15.79
2019-05-22T10:53:39.844Z,15.76
2019-05-22T10:56:09.936Z,15.64
2019-05-22T10:58:39.402Z,15.62
2019-05-22T11:01:10.037Z,15.81
2019-05-22T11:03:39.827Z,15.61
2019-05-22T11:06:09.352Z,15.59
2019-05-22T11:08:39.533Z,15.64
2019-05-22T11:11:10.373Z,15.49
2019-05-22T11:13:40.413Z,15.51
2019-05-22T11:16:10.302Z,15.09
2019-05-22T11:18:39.877Z,15.52
2019-05-22T11:21:09.669Z,16.03
2019-05-22T11:23:51.451Z,16.11
2019-05-22T11:26:11.147Z,16.51
2019-05-22T11:28:40.842Z,16.39
2019-05-22T11:31:11.822Z,16.60
2019-05-22T11:33:41.343Z,16.38
2019-05-22T11:36:10.796Z,16.44
2019-05-22T11:38:40.889Z,16.62
2019-05-22T11:41:10.703Z,16.77
2019-05-22T11:43:40.440Z,16.97
2019-05-22T11:46:10.086Z,16.74
2019-05-22T11:48:40.240Z,16.25
2019-05-22T11:51:09.574Z,16.41
2019-05-22T11:53:39.131Z,16.90
2019-05-22T11:56:08.578Z,16.84
2019-05-22T11:58:38.359Z,17.07
2019-05-22T12:01:08.242Z,17.15
2019-05-22T12:03:37.532Z,16.99
2019-05-22T12:06:09.454Z,16.97
2019-05-22T12:08:39.006Z,16.93
2019-05-22T12:11:10.778Z,17.58
2019-05-22T12:13:40.059Z,17.85
2019-05-22T12:16:10.004Z,17.31
2019-05-22T12:18:39.266Z,17.20
2019-05-22T12:21:09.081Z,17.50
2019-05-22T12:23:38.421Z,17.65
2019-05-22T12:26:08.756Z,17.79
2019-05-22T12:28:38.100Z,17.78
2019-05-22T12:31:08.333Z,17.80
2019-05-22T12:33:37.847Z,17.82
2019-05-22T12:36:10.025Z,18.18
2019-05-22T12:38:40.413Z,18.24
2019-05-22T12:41:10.104Z,18.90
2019-05-22T12:43:40.006Z,18.82
2019-05-22T12:46:10.326Z,19.20
2019-05-22T12:48:41.646Z,19.14
2019-05-22T12:51:11.189Z,18.83
2019-05-22T12:53:40.916Z,18.73
2019-05-22T12:56:10.319Z,18.49
2019-05-22T12:58:40.216Z,19.00
2019-05-22T13:01:09.583Z,19.72
2019-05-22T13:03:40.125Z,20.14
2019-05-22T13:06:11.660Z,19.99
2019-05-22T13:08:42.885Z,21.85
2019-05-22T13:11:13.522Z,22.39
2019-05-22T13:13:43.031Z,22.53
2019-05-22T13:16:12.387Z,22.32
2019-05-22T13:18:42.757Z,22.70
2019-05-22T13:21:15.372Z,22.89
2019-05-22T13:23:45.675Z,22.70
2019-05-22T13:26:16.111Z,23.02
2019-05-22T13:28:47.119Z,22.04
2019-05-22T13:31:21.288Z,21.54
2019-05-22T13:33:52.750Z,22.09
2019-05-22T13:36:22.462Z,22.42
2019-05-22T13:38:51.799Z,22.73
2019-05-22T13:41:21.129Z,23.77
2019-05-22T13:43:54.424Z,24.22
2019-05-22T13:46:24.042Z,23.39
2019-05-22T13:48:53.560Z,22.96
2019-05-22T13:51:27.957Z,23.07
2019-05-22T13:53:58.299Z,23.76
2019-05-22T13:56:28.455Z,23.72
2019-05-22T13:58:58.086Z,23.76
2019-05-22T14:01:27.742Z,24.11
2019-05-22T14:03:57.346Z,24.69
2019-05-22T14:06:27.978Z,26.35
2019-05-22T14:08:57.525Z,24.94
2019-05-22T14:11:27.909Z,25.87
2019-05-22T14:13:57.724Z,24.57
2019-05-22T14:16:27.265Z,24.44
2019-05-22T14:18:56.763Z,23.77
2019-05-22T14:21:26.003Z,24.52
2019-05-22T14:23:55.262Z,23.76
2019-05-22T14:26:24.976Z,24.09
2019-05-22T14:28:54.441Z,25.25
2019-05-22T14:31:23.739Z,25.65
2019-05-22T14:33:53.781Z,26.03
2019-05-22T14:36:23.469Z,25.97
2019-05-22T14:38:53.105Z,25.51
2019-05-22T14:41:22.346Z,25.70
2019-05-22T14:43:51.800Z,25.99
2019-05-22T14:46:21.046Z,25.56
2019-05-22T14:48:51.244Z,24.99
2019-05-22T14:51:21.240Z,26.05
2019-05-22T14:53:52.113Z,25.93
2019-05-22T14:56:22.241Z,26.16
2019-05-22T14:58:51.799Z,26.08
2019-05-22T15:01:22.520Z,23.98
2019-05-22T15:03:52.083Z,24.99
2019-05-22T15:06:21.881Z,25.08
2019-05-22T15:08:51.247Z,25.61
2019-05-22T15:11:20.747Z,25.74
2019-05-22T15:13:50.068Z,25.41
2019-05-22T15:16:20.157Z,25.39
2019-05-22T15:18:49.724Z,24.74
2019-05-22T15:21:19.892Z,23.11
2019-05-22T15:23:51.056Z,22.26
2019-05-22T15:26:21.266Z,22.68
2019-05-22T15:28:51.350Z,23.89
2019-05-22T15:31:21.056Z,24.89
2019-05-22T15:33:50.881Z,25.15
2019-05-22T15:36:24.385Z,25.46
2019-05-22T15:38:55.029Z,25.82
2019-05-22T15:41:25.824Z,25.74
2019-05-22T15:43:55.745Z,25.53
2019-05-22T15:46:25.944Z,26.27
2019-05-22T15:48:56.199Z,26.15
2019-05-22T15:51:32.213Z,25.44
2019-05-22T15:54:04.484Z,25.98
2019-05-22T15:56:36.159Z,24.57
2019-05-22T15:59:08.572Z,24.94
2019-05-22T16:01:38.257Z,24.52
2019-05-22T16:04:10.950Z,24.26
2019-05-22T16:06:40.299Z,24.64
2019-05-22T16:09:15.289Z,24.55
2019-05-22T16:11:46.790Z,25.01
2019-05-22T16:14:17.314Z,25.05
2019-05-22T16:16:49.785Z,24.58
2019-05-22T16:19:22.097Z,24.97
2019-05-22T16:21:54.187Z,24.62
2019-05-22T16:24:23.616Z,24.02
2019-05-22T16:26:52.984Z,23.67
2019-05-22T16:29:24.786Z,23.47
2019-05-22T16:31:56.085Z,23.84
2019-05-22T16:34:28.475Z,23.74
2019-05-22T16:36:58.321Z,23.66
2019-05-22T16:39:27.638Z,23.69
2019-05-22T16:41:57.648Z,22.80
2019-05-22T16:44:27.500Z,22.67
2019-05-22T16:46:57.931Z,23.04
2019-05-22T16:49:27.863Z,23.41
2019-05-22T16:51:58.880Z,23.75
2019-05-22T16:54:30.134Z,24.36
2019-05-22T16:56:59.564Z,23.62
2019-05-22T16:59:30.015Z,23.41
2019-05-22T17:02:00.924Z,22.94
2019-05-22T17:04:30.299Z,22.60
2019-05-22T17:07:01.137Z,22.21
2019-05-22T17:09:30.697Z,22.51
2019-05-22T17:12:04.647Z,22.73
2019-05-22T17:14:33.960Z,23.03
2019-05-22T17:17:03.207Z,22.46
2019-05-22T17:19:32.510Z,22.82
2019-05-22T17:22:02.238Z,22.46
2019-05-22T17:24:34.115Z,21.64
2019-05-22T17:27:04.492Z,21.35
2019-05-22T17:29:34.463Z,20.72
2019-05-22T17:32:05.398Z,20.69
2019-05-22T17:34:35.642Z,20.46
2019-05-22T17:37:14.476Z,20.49
2019-05-22T17:39:46.611Z,20.41
2019-05-22T17:42:18.219Z,20.09
2019-05-22T17:44:49.667Z,20.20
2019-05-22T17:47:21.730Z,19.92
2019-05-22T17:49:51.521Z,20.15
2019-05-22T17:52:22.064Z,20.36
2019-05-22T17:54:53.120Z,20.36
2019-05-22T17:57:24.100Z,20.53
2019-05-22T17:59:54.512Z,20.45
2019-05-22T18:02:26.911Z,20.05
2019-05-22T18:04:56.475Z,20.14
2019-05-22T18:07:26.628Z,19.95
2019-05-22T18:09:56.406Z,19.89
2019-05-22T18:12:27.060Z,19.99
2019-05-22T18:14:56.859Z,20.19
2019-05-22T18:17:27.434Z,19.81
2019-05-22T18:19:57.137Z,19.37
2019-05-22T18:22:29.113Z,19.27
2019-05-22T18:24:58.976Z,19.31
2019-05-22T18:27:32.469Z,18.87
2019-05-22T18:30:02.109Z,18.75
2019-05-22T18:32:33.663Z,18.70
2019-05-22T18:35:03.184Z,18.52
2019-05-22T18:37:32.655Z,18.33
2019-05-22T18:40:02.241Z,17.99
2019-05-22T18:42:32.034Z,17.82
2019-05-22T18:45:01.885Z,17.76
2019-05-22T18:47:32.127Z,17.73
2019-05-22T18:50:01.542Z,17.59
2019-05-22T18:52:40.433Z,17.44
2019-05-22T18:55:02.678Z,17.33
2019-05-22T18:57:33.457Z,17.28
2019-05-22T19:00:05.867Z,17.25
2019-05-22T19:02:34.970Z,17.11
2019-05-22T19:05:04.565Z,16.94
2019-05-22T19:07:37.448Z,16.70
2019-05-22T19:10:08.369Z,16.50
2019-05-22T19:12:37.894Z,16.45
2019-05-22T19:15:07.688Z,16.23
2019-05-22T19:17:37.203Z,16.27
2019-05-22T19:20:08.812Z,16.24
2019-05-22T19:22:38.838Z,16.10
2019-05-22T19:25:08.124Z,15.90
2019-05-22T19:27:37.482Z,15.78
2019-05-22T19:30:09.356Z,15.73
2019-05-22T19:32:38.797Z,15.66
2019-05-22T19:35:09.047Z,15.66
2019-05-22T19:37:39.020Z,15.60
2019-05-22T19:40:10.958Z,15.50
2019-05-22T19:42:40.872Z,15.45
2019-05-22T19:45:12.147Z,15.32
2019-05-22T19:47:46.724Z,15.18
2019-05-22T19:50:23.207Z,15.11
2019-05-22T19:52:48.542Z,15.04
2019-05-22T19:55:32.125Z,14.94
2019-05-22T19:58:05.601Z,14.85
2019-05-22T20:00:35.201Z,14.62
2019-05-22T20:03:04.739Z,14.45
2019-05-22T20:05:35.203Z,14.35
2019-05-22T20:08:05.882Z,14.44
2019-05-22T20:10:35.102Z,14.41
2019-05-22T20:13:06.461Z,14.27
2019-05-22T20:15:36.276Z,14.17
2019-05-22T20:18:06.018Z,14.04
2019-05-22T20:20:35.348Z,14.05
2019-05-22T20:23:05.033Z,13.94
2019-05-22T20:25:35.738Z,13.94
2019-05-22T20:28:05.564Z,13.85
2019-05-22T20:30:35.307Z,13.79
2019-05-22T20:33:04.911Z,13.66
2019-05-22T20:35:34.528Z,13.61
2019-05-22T20:38:04.557Z,13.70
2019-05-22T20:40:34.568Z,13.61
2019-05-22T20:43:07.677Z,13.35
2019-05-22T20:45:38.745Z,13.44
2019-05-22T20:48:12.244Z,13.37
2019-05-22T20:50:41.988Z,13.35
2019-05-22T20:53:12.488Z,13.34
2019-05-22T20:55:42.548Z,13.23
2019-05-22T20:58:14.281Z,13.32
2019-05-22T21:00:43.814Z,13.30
2019-05-22T21:03:13.819Z,13.41
2019-05-22T21:05:44.436Z,13.31
2019-05-22T21:08:15.962Z,13.08
2019-05-22T21:10:48.182Z,13.14
2019-05-22T21:13:19.317Z,13.13
2019-05-22T21:15:49.736Z,12.97
2019-05-22T21:18:21.379Z,12.88
2019-05-22T21:20:55.217Z,12.83
2019-05-22T21:23:23.780Z,12.70
2019-05-22T21:25:54.499Z,12.85
2019-05-22T21:28:24.854Z,12.83
2019-05-22T21:30:55.388Z,12.77
2019-05-22T21:33:25.431Z,12.59
2019-05-22T21:35:54.951Z,12.57
2019-05-22T21:38:25.133Z,12.47
2019-05-22T21:40:56.627Z,12.67
2019-05-22T21:43:26.978Z,12.68
2019-05-22T21:45:56.417Z,12.60
2019-05-22T21:48:26.729Z,12.57
2019-05-22T21:50:56.765Z,12.61
2019-05-22T21:53:26.237Z,12.57
2019-05-22T21:56:04.717Z,12.42
2019-05-22T21:58:28.720Z,12.30
2019-05-22T22:04:36.942Z,11.98
2019-05-22T22:07:07.390Z,12.02
2019-05-22T22:09:37.624Z,11.86
2019-05-22T22:12:09.271Z,11.97
2019-05-22T22:14:40.239Z,11.75
2019-05-22T22:17:10.187Z,11.90
2019-05-22T22:19:40.413Z,11.81
2019-05-22T22:22:13.298Z,11.82
2019-05-22T22:24:44.808Z,11.85
2019-05-22T22:27:14.727Z,11.86
2019-05-22T22:29:44.548Z,11.72
2019-05-22T22:32:15.952Z,11.83
2019-05-22T22:34:48.719Z,11.84
2019-05-22T22:37:19.174Z,11.87
2019-05-22T22:39:54.550Z,12.10
2019-05-22T22:42:26.543Z,12.13
2019-05-22T22:44:57.639Z,12.11
2019-05-22T22:47:44.092Z,12.14
2019-05-22T22:50:14.051Z,12.08
2019-05-22T22:52:45.881Z,12.09
2019-05-22T22:55:16.554Z,12.03
2019-05-22T22:57:47.328Z,11.92
2019-05-22T23:00:22.945Z,11.98
2019-05-22T23:02:52.977Z,11.96
2019-05-22T23:05:22.242Z,11.90
2019-05-22T23:07:53.834Z,11.86
2019-05-22T23:10:24.192Z,11.91
2019-05-22T23:12:54.526Z,11.83
2019-05-22T23:15:25.763Z,11.81
2019-05-22T23:17:55.582Z,11.88
2019-05-22T23:20:23.105Z,11.85
2019-05-22T23:22:50.671Z,11.90
2019-05-22T23:25:21.180Z,11.76
2019-05-22T23:27:50.753Z,11.78
2019-05-22T23:30:20.581Z,11.73
2019-05-22T23:32:51.051Z,11.75
2019-05-22T23:35:21.137Z,11.62
2019-05-22T23:37:51.728Z,11.64
2019-05-22T23:40:27.029Z,11.71
2019-05-22T23:42:58.271Z,11.62
2019-05-22T23:45:27.604Z,11.54
2019-05-22T23:48:17.257Z,11.65
2019-05-22T23:50:49.408Z,11.71
2019-05-22T23:53:20.922Z,11.58
2019-05-22T23:55:50.305Z,11.56
2019-05-22T23:58:22.076Z,11.58
